createdAt,value
2018-01-23T00:00:35.468Z,25.57
2018-01-23T00:03:03.831Z,18.87
2018-01-23T00:05:32.114Z,24.43
2018-01-23T00:08:00.362Z,18.17
2018-01-23T00:10:27.806Z,24.23
2018-01-23T00:12:55.248Z,23.53
2018-01-23T00:15:22.691Z,27.93
2018-01-23T00:17:50.136Z,19.00
2018-01-23T00:20:17.581Z,22.73
2018-01-23T00:22:45.019Z,14.80
2018-01-23T00:25:13.229Z,19.70
2018-01-23T00:27:41.452Z,17.73
2018-01-23T00:30:08.906Z,29.00
2018-01-23T00:32:37.140Z,29.83
2018-01-23T00:35:04.579Z,22.37
2018-01-23T00:37:32.029Z,21.27
2018-01-23T00:39:59.491Z,23.90
2018-01-23T00:42:26.946Z,26.03
2018-01-23T00:44:54.392Z,23.93
2018-01-23T00:47:22.631Z,23.30
2018-01-23T00:49:50.071Z,21.30
2018-01-23T00:52:17.535Z,21.70
2018-01-23T00:54:44.996Z,36.83
2018-01-23T00:57:12.443Z,27.07
2018-01-23T00:59:39.901Z,24.93
2018-01-23T01:02:08.119Z,26.53
2018-01-23T01:04:36.370Z,25.60
2018-01-23T01:07:03.829Z,37.63
2018-01-23T01:09:31.283Z,36.67
2018-01-23T01:11:58.759Z,25.80
2018-01-23T01:14:26.983Z,23.83
2018-01-23T01:16:54.433Z,26.27
2018-01-23T01:19:21.923Z,26.13
2018-01-23T01:21:49.339Z,28.10
2018-01-23T01:24:16.799Z,23.77
2018-01-23T01:26:44.254Z,18.93
2018-01-23T01:29:11.724Z,20.20
2018-01-23T01:31:39.171Z,39.08
2018-01-23T01:34:07.397Z,27.67
2018-01-23T01:36:34.856Z,25.33
2018-01-23T01:39:03.091Z,24.43
2018-01-23T01:41:30.535Z,28.77
2018-01-23T01:43:58.009Z,27.50
2018-01-23T01:46:25.467Z,27.67
2018-01-23T01:48:52.953Z,22.35
2018-01-23T01:51:20.391Z,24.10
2018-01-23T01:53:47.846Z,25.63
2018-01-23T01:56:15.297Z,22.10
2018-01-23T01:58:42.750Z,31.98
2018-01-23T02:01:10.215Z,32.38
2018-01-23T02:03:37.675Z,25.77
2018-01-23T02:06:05.144Z,29.75
2018-01-23T02:08:32.591Z,25.20
2018-01-23T02:11:00.052Z,40.70
2018-01-23T02:13:27.499Z,25.70
2018-01-23T02:15:56.458Z,34.35
2018-01-23T02:18:23.927Z,27.23
2018-01-23T02:20:51.376Z,32.13
2018-01-23T02:23:18.836Z,32.70
2018-01-23T02:25:46.282Z,14.70
2018-01-23T02:28:13.740Z,21.48
2018-01-23T02:30:42.342Z,24.63
2018-01-23T02:33:10.186Z,36.83
2018-01-23T02:35:37.663Z,36.58
2018-01-23T02:38:05.894Z,25.88
2018-01-23T02:40:33.351Z,26.83
2018-01-23T02:43:00.819Z,20.80
2018-01-23T02:45:28.279Z,29.10
2018-01-23T02:47:55.748Z,33.47
2018-01-23T02:50:23.216Z,27.08
2018-01-23T02:52:51.049Z,24.70
2018-01-23T02:55:18.509Z,37.97
2018-01-23T02:57:45.973Z,44.13
2018-01-23T03:00:13.436Z,32.90
2018-01-23T03:02:40.904Z,24.30
2018-01-23T03:05:08.356Z,30.33
2018-01-23T03:07:35.815Z,33.40
2018-01-23T03:10:03.269Z,20.03
2018-01-23T03:12:30.727Z,24.05
2018-01-23T03:14:58.179Z,25.75
2018-01-23T03:17:25.634Z,23.55
2018-01-23T03:19:53.847Z,24.12
2018-01-23T03:22:21.299Z,22.98
2018-01-23T03:24:48.755Z,21.50
2018-01-23T03:27:16.208Z,33.25
2018-01-23T03:29:43.663Z,26.10
2018-01-23T03:32:11.112Z,15.27
2018-01-23T03:34:38.570Z,12.95
2018-01-23T03:37:06.020Z,21.98
2018-01-23T03:39:33.482Z,16.60
2018-01-23T03:42:01.620Z,18.48
2018-01-23T03:44:29.073Z,21.12
2018-01-23T03:46:56.528Z,23.75
2018-01-23T03:49:23.983Z,18.08
2018-01-23T03:51:51.435Z,25.60
2018-01-23T03:54:18.891Z,24.98
2018-01-23T03:56:46.347Z,16.15
2018-01-23T03:59:14.571Z,19.27
2018-01-23T04:01:42.044Z,18.27
2018-01-23T04:04:09.506Z,19.20
2018-01-23T04:06:36.959Z,21.00
2018-01-23T04:09:04.459Z,18.48
2018-01-23T04:11:32.665Z,18.75
2018-01-23T04:14:00.884Z,30.92
2018-01-23T04:16:29.101Z,22.95
2018-01-23T04:18:56.568Z,21.35
2018-01-23T04:21:24.013Z,28.90
2018-01-23T04:23:51.509Z,18.58
2018-01-23T04:26:18.975Z,25.92
2018-01-23T04:28:46.433Z,17.58
2018-01-23T04:31:13.903Z,27.70
2018-01-23T04:33:41.749Z,24.47
2018-01-23T04:36:09.203Z,26.17
2018-01-23T04:38:36.666Z,53.65
2018-01-23T04:41:04.138Z,42.72
2018-01-23T04:43:32.365Z,20.97
2018-01-23T04:45:59.815Z,29.90
2018-01-23T04:48:27.279Z,21.52
2018-01-23T04:50:55.507Z,25.58
2018-01-23T04:53:23.729Z,14.90
2018-01-23T04:55:51.179Z,30.95
2018-01-23T04:58:18.635Z,27.67
2018-01-23T05:00:46.096Z,20.40
2018-01-23T05:03:13.544Z,26.90
2018-01-23T05:05:40.991Z,21.65
2018-01-23T05:08:08.439Z,20.48
2018-01-23T05:10:35.894Z,19.80
2018-01-23T05:13:03.345Z,23.38
2018-01-23T05:15:30.808Z,22.95
2018-01-23T05:17:58.268Z,25.90
2018-01-23T05:20:26.212Z,20.70
2018-01-23T05:22:54.450Z,21.27
2018-01-23T05:25:21.922Z,21.85
2018-01-23T05:27:49.772Z,20.55
2018-01-23T05:30:17.618Z,19.92
2018-01-23T05:32:45.072Z,26.20
2018-01-23T05:35:12.540Z,21.87
2018-01-23T05:37:39.992Z,19.95
2018-01-23T05:40:07.462Z,16.35
2018-01-23T05:42:35.688Z,40.30
2018-01-23T05:45:03.144Z,28.35
2018-01-23T05:47:30.594Z,22.45
2018-01-23T05:49:58.826Z,25.70
2018-01-23T05:52:26.289Z,24.48
2018-01-23T05:54:53.748Z,29.27
2018-01-23T05:57:21.190Z,27.37
2018-01-23T05:59:48.648Z,21.48
2018-01-23T06:02:16.111Z,31.55
2018-01-23T06:04:43.555Z,34.65
2018-01-23T06:07:11.002Z,14.70
2018-01-23T06:09:38.457Z,19.23
2018-01-23T06:12:05.899Z,27.40
2018-01-23T06:14:33.350Z,15.52
2018-01-23T06:17:00.832Z,17.67
2018-01-23T06:19:28.252Z,16.65
2018-01-23T06:21:56.465Z,12.18
2018-01-23T06:24:23.907Z,18.45
2018-01-23T06:26:51.363Z,22.80
2018-01-23T06:29:18.825Z,14.95
2018-01-23T06:31:46.280Z,16.48
2018-01-23T06:34:13.750Z,18.35
2018-01-23T06:36:41.200Z,14.00
2018-01-23T06:39:08.655Z,15.75
2018-01-23T06:41:36.115Z,23.80
2018-01-23T06:44:03.572Z,13.23
2018-01-23T06:46:31.023Z,13.55
2018-01-23T06:48:58.481Z,11.52
2018-01-23T06:51:25.942Z,14.35
2018-01-23T06:53:53.400Z,14.55
2018-01-23T06:56:20.871Z,12.55
2018-01-23T06:58:48.310Z,18.92
2018-01-23T07:01:15.759Z,26.03
2018-01-23T07:03:43.220Z,20.83
2018-01-23T07:06:10.675Z,28.55
2018-01-23T07:08:38.123Z,14.43
2018-01-23T07:11:05.571Z,19.73
2018-01-23T07:13:33.018Z,17.30
2018-01-23T07:16:00.479Z,10.82
2018-01-23T07:18:27.932Z,26.52
2018-01-23T07:20:56.135Z,22.23
2018-01-23T07:23:23.584Z,23.55
2018-01-23T07:25:51.294Z,19.83
2018-01-23T07:28:18.738Z,19.03
2018-01-23T07:30:46.179Z,17.53
2018-01-23T07:33:14.388Z,14.93
2018-01-23T07:35:41.847Z,14.93
2018-01-23T07:38:09.287Z,18.30
2018-01-23T07:40:36.739Z,13.80
2018-01-23T07:43:04.180Z,14.60
2018-01-23T07:45:31.627Z,14.30
2018-01-23T07:47:59.067Z,10.77
2018-01-23T07:50:26.531Z,15.60
2018-01-23T07:52:53.980Z,15.97
2018-01-23T07:55:21.445Z,11.88
2018-01-23T07:57:48.902Z,14.27
2018-01-23T08:00:17.260Z,13.90
2018-01-23T08:02:44.695Z,11.50
2018-01-23T08:05:12.911Z,14.20
2018-01-23T08:07:40.355Z,9.30
2018-01-23T08:10:07.808Z,14.20
2018-01-23T08:12:35.268Z,11.10
2018-01-23T08:15:02.708Z,10.90
2018-01-23T08:17:30.208Z,14.30
2018-01-23T08:19:57.643Z,16.67
2018-01-23T08:22:25.091Z,13.47
2018-01-23T08:24:52.533Z,8.80
2018-01-23T08:27:20.743Z,13.27
2018-01-23T08:29:48.200Z,14.05
2018-01-23T08:32:15.644Z,8.40
2018-01-23T08:34:43.103Z,11.98
2018-01-23T08:37:10.555Z,16.48
2018-01-23T08:39:38.011Z,9.90
2018-01-23T08:42:05.454Z,7.07
2018-01-23T08:44:32.901Z,13.83
2018-01-23T08:47:01.119Z,12.73
2018-01-23T08:49:28.599Z,33.40
2018-01-23T08:51:56.053Z,15.47
2018-01-23T08:54:23.503Z,10.43
2018-01-23T08:56:50.974Z,10.55
2018-01-23T08:59:18.419Z,16.05
2018-01-23T09:01:45.862Z,13.82
2018-01-23T09:04:13.304Z,8.87
2018-01-23T09:06:40.742Z,8.20
2018-01-23T09:09:08.176Z,8.13
2018-01-23T09:11:36.392Z,8.10
2018-01-23T09:14:03.839Z,13.80
2018-01-23T09:16:31.275Z,5.73
2018-01-23T09:18:58.718Z,7.50
2018-01-23T09:21:27.171Z,5.80
2018-01-23T09:23:55.382Z,16.17
2018-01-23T09:26:23.595Z,10.60
2018-01-23T09:28:51.041Z,18.37
2018-01-23T09:31:18.489Z,11.00
2018-01-23T09:33:46.322Z,13.53
2018-01-23T09:36:14.537Z,9.60
2018-01-23T09:38:41.970Z,7.30
2018-01-23T09:41:09.433Z,10.23
2018-01-23T09:43:36.875Z,9.93
2018-01-23T09:46:05.098Z,14.40
2018-01-23T09:48:32.547Z,10.60
2018-01-23T09:51:00.002Z,15.03
2018-01-23T09:53:27.465Z,20.70
2018-01-23T09:55:54.918Z,16.77
2018-01-23T09:58:22.376Z,28.63
2018-01-23T10:00:49.827Z,11.03
2018-01-23T10:03:17.266Z,22.17
2018-01-23T10:05:44.728Z,37.37
2018-01-23T10:08:12.179Z,9.60
2018-01-23T10:10:39.641Z,8.10
2018-01-23T10:13:07.119Z,4.00
2018-01-23T10:15:34.540Z,8.03
2018-01-23T10:18:01.983Z,11.43
2018-01-23T10:20:30.192Z,8.30
2018-01-23T10:22:57.640Z,10.30
2018-01-23T10:25:25.083Z,19.90
2018-01-23T10:27:52.531Z,10.03
2018-01-23T10:30:20.740Z,13.63
2018-01-23T10:32:48.183Z,7.80
2018-01-23T10:35:15.619Z,14.33
2018-01-23T10:37:43.827Z,6.40
2018-01-23T10:40:12.042Z,5.87
2018-01-23T10:42:39.495Z,12.93
2018-01-23T10:45:06.943Z,7.60
2018-01-23T10:47:34.400Z,7.40
2018-01-23T10:50:01.847Z,7.50
2018-01-23T10:52:29.284Z,3.83
2018-01-23T10:54:56.715Z,4.33
2018-01-23T10:57:24.158Z,3.70
2018-01-23T10:59:52.371Z,6.20
2018-01-23T11:02:19.820Z,15.23
2018-01-23T11:04:47.273Z,13.60
2018-01-23T11:07:14.723Z,27.13
2018-01-23T11:09:42.167Z,19.13
2018-01-23T11:12:10.387Z,11.60
2018-01-23T11:14:37.835Z,13.23
2018-01-23T11:17:05.281Z,10.03
2018-01-23T11:19:32.732Z,6.07
2018-01-23T11:22:00.172Z,5.77
2018-01-23T11:24:27.619Z,11.43
2018-01-23T11:26:55.835Z,4.03
2018-01-23T11:29:23.289Z,8.67
2018-01-23T11:31:51.865Z,6.53
2018-01-23T11:34:19.312Z,9.97
2018-01-23T11:36:47.147Z,5.23
2018-01-23T11:39:15.000Z,11.57
2018-01-23T11:41:42.444Z,18.63
2018-01-23T11:44:09.900Z,11.30
2018-01-23T11:46:37.339Z,12.60
2018-01-23T11:49:04.792Z,10.10
2018-01-23T11:51:32.299Z,10.47
2018-01-23T11:53:59.709Z,10.37
2018-01-23T11:56:27.156Z,10.63
2018-01-23T11:58:54.604Z,9.10
2018-01-23T12:01:22.052Z,9.13
2018-01-23T12:03:49.500Z,7.50
2018-01-23T12:06:16.951Z,12.30
2018-01-23T12:08:45.168Z,8.10
2018-01-23T12:11:12.604Z,7.27
2018-01-23T12:13:40.064Z,14.30
2018-01-23T12:16:07.522Z,14.47
2018-01-23T12:18:34.951Z,9.00
2018-01-23T12:21:02.391Z,6.90
2018-01-23T12:23:30.603Z,16.97
2018-01-23T12:25:58.060Z,11.47
2018-01-23T12:28:25.491Z,6.50
2018-01-23T12:30:52.941Z,8.23
2018-01-23T12:33:21.147Z,9.67
2018-01-23T12:35:48.612Z,8.10
2018-01-23T12:38:16.038Z,8.30
2018-01-23T12:40:43.495Z,15.73
2018-01-23T12:43:10.939Z,11.23
2018-01-23T12:45:39.153Z,7.63
2018-01-23T12:48:06.602Z,14.27
2018-01-23T12:50:34.071Z,9.93
2018-01-23T12:53:01.528Z,13.53
2018-01-23T12:55:28.981Z,20.87
2018-01-23T12:57:56.419Z,11.07
2018-01-23T13:00:23.866Z,6.03
2018-01-23T13:02:51.472Z,11.67
2018-01-23T13:05:19.652Z,13.37
2018-01-23T13:07:47.098Z,16.17
2018-01-23T13:10:14.943Z,25.47
2018-01-23T13:12:42.396Z,23.87
2018-01-23T13:15:09.843Z,8.00
2018-01-23T13:17:37.292Z,11.80
2018-01-23T13:20:04.740Z,9.70
2018-01-23T13:22:32.943Z,7.30
2018-01-23T13:25:00.397Z,8.60
2018-01-23T13:27:27.840Z,17.60
2018-01-23T13:29:55.287Z,10.40
2018-01-23T13:32:22.731Z,12.97
2018-01-23T13:34:50.951Z,13.03
2018-01-23T13:37:18.399Z,12.07
2018-01-23T13:39:46.608Z,10.17
2018-01-23T13:42:14.043Z,9.43
2018-01-23T13:44:41.489Z,6.70
2018-01-23T13:47:08.923Z,7.43
2018-01-23T13:49:36.377Z,16.10
2018-01-23T13:52:04.125Z,7.10
2018-01-23T13:54:32.343Z,14.73
2018-01-23T13:56:59.801Z,29.00
2018-01-23T13:59:27.244Z,16.27
2018-01-23T14:01:54.689Z,13.17
2018-01-23T14:04:22.128Z,9.73
2018-01-23T14:06:50.337Z,11.03
2018-01-23T14:09:17.779Z,10.73
2018-01-23T14:11:45.234Z,5.10
2018-01-23T14:14:12.667Z,14.03
2018-01-23T14:16:40.879Z,8.27
2018-01-23T14:19:08.323Z,8.83
2018-01-23T14:21:35.768Z,12.00
2018-01-23T14:24:03.208Z,6.80
2018-01-23T14:26:31.419Z,12.70
2018-01-23T14:28:58.873Z,16.83
2018-01-23T14:31:26.340Z,14.83
2018-01-23T14:33:53.796Z,20.40
2018-01-23T14:36:21.233Z,19.87
2018-01-23T14:38:48.681Z,18.27
2018-01-23T14:41:16.142Z,10.97
2018-01-23T14:43:43.976Z,6.47
2018-01-23T14:46:11.426Z,22.43
2018-01-23T14:48:38.875Z,16.47
2018-01-23T14:51:06.334Z,17.50
2018-01-23T14:53:33.771Z,22.27
2018-01-23T14:56:01.248Z,32.80
2018-01-23T14:58:28.691Z,39.63
2018-01-23T15:00:56.172Z,33.53
2018-01-23T15:03:23.605Z,37.80
2018-01-23T15:05:51.062Z,26.30
2018-01-23T15:08:18.499Z,18.37
2018-01-23T15:10:45.967Z,20.53
2018-01-23T15:13:13.452Z,26.70
2018-01-23T15:15:40.901Z,16.97
2018-01-23T15:18:08.342Z,20.40
2018-01-23T15:20:35.789Z,43.53
2018-01-23T15:23:03.248Z,28.50
2018-01-23T15:25:30.693Z,23.13
2018-01-23T15:27:58.135Z,27.53
2018-01-23T15:30:25.579Z,56.23
2018-01-23T15:32:53.034Z,126.73
2018-01-23T15:35:21.285Z,333.03
2018-01-23T15:37:48.714Z,80.60
2018-01-23T15:40:16.159Z,45.00
2018-01-23T15:42:44.016Z,22.43
2018-01-23T15:45:11.463Z,25.57
2018-01-23T15:47:38.921Z,25.43
2018-01-23T15:50:06.373Z,33.87
2018-01-23T15:52:33.823Z,17.17
2018-01-23T15:55:01.264Z,22.93
2018-01-23T15:57:29.488Z,19.67
2018-01-23T15:59:56.935Z,22.17
2018-01-23T16:02:24.384Z,15.40
2018-01-23T16:04:51.839Z,28.30
2018-01-23T16:07:19.302Z,38.87
2018-01-23T16:09:46.742Z,24.70
2018-01-23T16:12:14.964Z,31.03
2018-01-23T16:14:42.403Z,23.20
2018-01-23T16:17:09.855Z,40.60
2018-01-23T16:19:38.066Z,24.37
2018-01-23T16:22:05.521Z,27.20
2018-01-23T16:24:32.971Z,18.30
2018-01-23T16:27:00.438Z,17.77
2018-01-23T16:29:27.865Z,15.80
2018-01-23T16:31:55.308Z,23.33
2018-01-23T16:34:22.755Z,15.13
2018-01-23T16:36:50.204Z,25.17
2018-01-23T16:39:17.649Z,22.57
2018-01-23T16:41:45.091Z,14.90
2018-01-23T16:44:13.304Z,16.07
2018-01-23T16:46:40.746Z,13.93
2018-01-23T16:49:08.192Z,23.10
2018-01-23T16:51:35.650Z,41.17
2018-01-23T16:54:03.095Z,31.40
2018-01-23T16:56:31.313Z,75.83
2018-01-23T16:58:58.777Z,43.70
2018-01-23T17:01:26.987Z,41.80
2018-01-23T17:03:55.206Z,42.50
2018-01-23T17:06:22.642Z,23.23
2018-01-23T17:08:50.086Z,25.00
2018-01-23T17:11:18.299Z,24.90
2018-01-23T17:13:45.746Z,17.33
2018-01-23T17:16:13.205Z,32.37
2018-01-23T17:18:40.638Z,23.93
2018-01-23T17:21:08.102Z,24.17
2018-01-23T17:23:35.552Z,38.50
2018-01-23T17:26:03.053Z,28.70
2018-01-23T17:28:30.490Z,20.30
2018-01-23T17:30:57.935Z,23.43
2018-01-23T17:33:25.425Z,33.90
2018-01-23T17:35:52.858Z,43.00
2018-01-23T17:38:20.311Z,41.40
2018-01-23T17:40:48.519Z,38.27
2018-01-23T17:43:16.375Z,35.50
2018-01-23T17:45:44.595Z,41.10
2018-01-23T17:48:12.815Z,37.83
2018-01-23T17:50:40.270Z,36.83
2018-01-23T17:53:07.757Z,14.50
2018-01-23T17:55:35.192Z,12.70
2018-01-23T17:58:02.648Z,18.13
2018-01-23T18:00:35.950Z,15.27
2018-01-23T18:03:03.399Z,12.77
2018-01-23T18:05:30.847Z,13.77
2018-01-23T18:07:58.500Z,15.30
2018-01-23T18:10:25.954Z,14.93
2018-01-23T18:12:53.419Z,16.27
2018-01-23T18:15:20.899Z,18.60
2018-01-23T18:17:48.355Z,9.80
2018-01-23T18:20:15.795Z,13.60
2018-01-23T18:22:43.251Z,15.63
2018-01-23T18:25:10.743Z,9.87
2018-01-23T18:27:38.186Z,23.67
2018-01-23T18:30:05.663Z,15.80
2018-01-23T18:32:33.876Z,10.95
2018-01-23T18:35:01.385Z,21.25
2018-01-23T18:37:28.825Z,21.48
2018-01-23T18:39:56.332Z,19.77
2018-01-23T18:42:24.171Z,11.38
2018-01-23T18:44:52.079Z,17.45
2018-01-23T18:47:20.287Z,15.52
2018-01-23T18:49:47.789Z,8.13
2018-01-23T18:52:15.243Z,10.98
2018-01-23T18:54:42.691Z,6.35
2018-01-23T18:57:10.927Z,13.95
2018-01-23T18:59:38.381Z,16.50
2018-01-23T19:02:06.594Z,25.27
2018-01-23T19:04:34.798Z,15.38
2018-01-23T19:07:02.251Z,25.00
2018-01-23T19:09:29.758Z,20.33
2018-01-23T19:11:57.257Z,13.80
2018-01-23T19:14:25.535Z,24.27
2018-01-23T19:16:53.779Z,18.70
2018-01-23T19:19:21.978Z,18.85
2018-01-23T19:21:50.186Z,26.25
2018-01-23T19:24:18.498Z,22.75
2018-01-23T19:26:45.928Z,18.62
2018-01-23T19:29:13.393Z,14.52
2018-01-23T19:31:40.894Z,15.43
2018-01-23T19:34:09.095Z,15.85
2018-01-23T19:36:36.548Z,12.10
2018-01-23T19:39:04.080Z,17.75
2018-01-23T19:41:31.596Z,17.62
2018-01-23T19:43:59.077Z,19.37
2018-01-23T19:46:28.191Z,37.45
2018-01-23T19:48:55.704Z,86.43
2018-01-23T19:51:23.147Z,42.70
2018-01-23T19:53:51.469Z,34.80
2018-01-23T19:56:18.960Z,35.28
2018-01-23T19:58:46.615Z,53.25
2018-01-23T20:01:15.234Z,28.30
2018-01-23T20:03:42.859Z,27.77
2018-01-23T20:06:10.333Z,49.33
2018-01-23T20:08:37.840Z,101.95
2018-01-23T20:11:05.353Z,52.22
2018-01-23T20:13:32.795Z,80.72
2018-01-23T20:16:00.295Z,73.15
2018-01-23T20:18:27.786Z,148.80
2018-01-23T20:20:55.220Z,105.35
2018-01-23T20:23:23.962Z,72.95
2018-01-23T20:25:51.448Z,124.35
2018-01-23T20:28:18.880Z,93.20
2018-01-23T20:30:46.382Z,96.03
2018-01-23T20:33:13.823Z,273.55
2018-01-23T20:35:41.291Z,172.90
2018-01-23T20:38:08.793Z,116.65
2018-01-23T20:40:37.050Z,166.68
2018-01-23T20:43:04.533Z,138.37
2018-01-23T20:45:32.031Z,190.25
2018-01-23T20:47:59.463Z,236.98
2018-01-23T20:50:26.918Z,233.87
2018-01-23T20:52:54.375Z,122.45
2018-01-23T20:55:21.818Z,52.13
2018-01-23T20:57:49.307Z,39.35
2018-01-23T21:00:16.739Z,50.95
2018-01-23T21:02:44.183Z,55.33
2018-01-23T21:05:11.685Z,25.20
2018-01-23T21:07:39.116Z,40.00
2018-01-23T21:10:06.615Z,39.08
2018-01-23T21:12:34.079Z,61.72
2018-01-23T21:15:01.559Z,88.53
2018-01-23T21:17:29.803Z,74.30
2018-01-23T21:19:57.230Z,112.60
2018-01-23T21:22:24.751Z,87.35
2018-01-23T21:24:52.954Z,78.95
2018-01-23T21:27:20.453Z,66.85
2018-01-23T21:29:47.878Z,80.80
2018-01-23T21:32:15.370Z,65.07
2018-01-23T21:34:42.845Z,131.07
2018-01-23T21:37:11.111Z,115.78
2018-01-23T21:39:46.458Z,126.60
2018-01-23T21:42:17.067Z,74.80
2018-01-23T21:44:44.822Z,111.95
2018-01-23T21:47:20.123Z,71.60
2018-01-23T21:49:57.510Z,107.93
2018-01-23T21:55:14.577Z,66.12
2018-01-23T21:57:43.372Z,71.72
2018-01-23T22:00:11.571Z,59.22
2018-01-23T22:02:39.784Z,72.20
2018-01-23T22:05:07.285Z,64.68
2018-01-23T22:07:34.723Z,84.68
2018-01-23T22:10:02.767Z,90.10
2018-01-23T22:12:37.285Z,92.85
2018-01-23T22:15:14.666Z,76.70
2018-01-23T22:17:47.695Z,81.90
2018-01-23T22:20:25.563Z,72.30
2018-01-23T22:25:58.387Z,67.18
2018-01-23T22:31:27.937Z,61.33
2018-01-23T22:34:04.075Z,74.70
2018-01-23T22:36:45.717Z,77.03
2018-01-23T22:39:21.277Z,72.22
2018-01-23T22:44:41.248Z,81.95
2018-01-23T22:47:16.985Z,85.78
2018-01-23T22:50:10.065Z,73.90
2018-01-23T22:55:23.908Z,67.57
2018-01-23T22:57:57.803Z,97.00
2018-01-23T23:03:14.252Z,87.43
2018-01-23T23:05:41.801Z,71.55
2018-01-23T23:08:13.752Z,53.80
2018-01-23T23:11:10.008Z,63.40
2018-01-23T23:13:37.431Z,49.65
2018-01-23T23:16:04.875Z,55.03
2018-01-23T23:18:32.316Z,46.83
2018-01-23T23:20:59.763Z,50.25
2018-01-23T23:23:27.215Z,38.05
2018-01-23T23:25:54.664Z,46.85
2018-01-23T23:28:22.104Z,69.90
2018-01-23T23:30:49.555Z,62.03
2018-01-23T23:33:17.013Z,56.60
2018-01-23T23:35:44.468Z,52.53
2018-01-23T23:38:12.310Z,60.00
2018-01-23T23:40:40.147Z,45.38
2018-01-23T23:43:08.367Z,50.40
2018-01-23T23:45:36.575Z,56.95
2018-01-23T23:48:04.022Z,62.90
2018-01-23T23:50:31.467Z,63.58
2018-01-23T23:52:58.913Z,60.00
2018-01-23T23:55:27.118Z,72.28
2018-01-23T23:57:54.569Z,78.30
